Palmyra, ME (04965)

12:25 PM EST on December 18, 2014 (GMT -0500)
Downtown Newport | Change Station
CLOSE
Current Station
Personal Weather Station
Location: Newport, ME
Elevation: 227 ft
Nearby Weather Stations

Elev 227 ft 44.84 °N, 69.28 °W | Updated 11 seconds ago

Overcast
Overcast
31.4 °F
Feels Like 26 °F
N
6.0
Wind Variable Wind from NW
Gusts 9.0 mph

Today
High -- | Low -- °F
--% Chance of Precip.
Yesterday
High -- | Low -- °F
Precip. -- in
7:10 AM 3:57 PM
Waning Crescent, 13% visible
Pressure 29.62 in
Visibility 3.0 miles
Clouds Few 1500 ft
Mostly Cloudy 3500 ft
Overcast 5500 ft
Windchill 26 °F
Dew Point 31 °F
Humidity 100%
Rainfall 0.09 in
Snow Depth Not available.
UV 1 out of 12
Pollen .10 out of 12
Air Quality Not available.
Flu Activity Not available.
METAR KBGR 181653Z COR 31012G21KT 3SM -SN FEW015 BKN035 OVC055 01/M02 A2961 RMK AO2 SFC VIS 4 SNE50 SLP029 P0000 T00061022

More Conditions Fewer Conditions

Pressure 29.62 in
Visibility 3.0 miles
Clouds Few 1500 ft
Mostly Cloudy 3500 ft
Overcast 5500 ft
Windchill 26 °F
Dew Point 31 °F
Humidity 100%
Rainfall 0.09 in
Snow Depth Not available.
UV 1 out of 12
Pollen .10 out of 12
Air Quality Not available.
Flu Activity Not available.
METAR KBGR 181653Z COR 31012G21KT 3SM -SN FEW015 BKN035 OVC055 01/M02 A2961 RMK AO2 SFC VIS 4 SNE50 SLP029 P0000 T00061022

More Conditions Fewer Conditions

10-Day Weather Forecast

Almanac

Astronomy

Dec. 18, 2014 Rise Set
Actual Time
Civil Twilight
Nautical Twilight
Astronomical Twilight
Moon
Length of Visible Light
Length of Day
Tomorrow will be .
, % of the Moon is Illuminated

Today's Extremes

State Highs State Lows

Community

WunderPhotos

Upload Photos

1,778,964 photos uploaded!

WunderBlogs® & News

Nearby

Air Quality

  Air Quality AQ Index Pollutant
Not available.

Snow Depth

Station Depth Elevation

Earthquake Activity

City Distance Mag. Time & Date
Minimum magnitude displayed is 2.5.

Coastal Water Temperatures

Place Temperature

Nearby Weather Stations